Time;durP1;ratioP1;P1;durP2;ratioP2;P2;SDS_P1;SDS_P2;PMS_P1;PMS_P2;Temp;Humidity;BMP_temperature;BMP_pressure;BME280_temperature;BME280_humidity;BME280_pressure;Samples;Min_cycle;Max_cycle;Signal;HPM_P1;HPM_P2
2023/11/27 00:00:38;;;;;;;6.00;3.03;;;;;;;;;;2091482;28;20501;-57
2023/11/27 00:01:39;;;;;;;4.50;2.72;;;;;;;;;;2091100;28;20056;-57
2023/11/27 00:02:39;;;;;;;6.57;2.63;;;;;;;;;;2091687;28;20033;-58
2023/11/27 00:03:40;;;;;;;5.00;2.60;;;;;;;;;;2091046;28;20366;-58
2023/11/27 00:04:41;;;;;;;8.38;3.83;;;;;;;;;;2091255;28;20047;-58
2023/11/27 00:05:41;;;;;;;5.55;2.75;;;;;;;;;;2091537;28;20063;-58
2023/11/27 00:06:42;;;;;;;6.15;3.28;;;;;;;;;;2091309;28;20068;-58
2023/11/27 00:07:43;;;;;;;7.03;3.38;;;;;;;;;;2091699;28;20044;-60
2023/11/27 00:08:44;;;;;;;5.05;3.10;;;;;;;;;;2091745;28;20446;-59
2023/11/27 00:09:45;;;;;;;6.45;3.20;;;;;;;;;;2091260;28;20040;-58
2023/11/27 00:10:45;;;;;;;5.38;3.22;;;;;;;;;;2091709;28;20048;-58
2023/11/27 00:11:46;;;;;;;7.18;3.63;;;;;;;;;;2091398;28;20040;-57
2023/11/27 00:12:48;;;;;;;5.30;2.88;;;;;;;;;;2091567;28;20489;-57
2023/11/27 00:13:49;;;;;;;8.52;3.83;;;;;;;;;;2091256;28;20033;-58
2023/11/27 00:14:49;;;;;;;7.15;3.97;;;;;;;;;;2091483;28;20438;-57
2023/11/27 00:15:50;;;;;;;7.47;4.00;;;;;;;;;;2091254;28;20607;-57
2023/11/27 00:16:51;;;;;;;6.55;3.42;;;;;;;;;;2091289;28;20412;-58
2023/11/27 00:17:52;;;;;;;7.30;4.03;;;;;;;;;;2091198;28;20507;-58
2023/11/27 00:18:53;;;;;;;7.50;3.40;;;;;;;;;;2091266;28;20056;-57
2023/11/27 00:19:54;;;;;;;6.93;3.05;;;;;;;;;;2091209;28;20048;-57
2023/11/27 00:20:54;;;;;;;5.75;3.47;;;;;;;;;;2091325;28;20380;-59
2023/11/27 00:21:55;;;;;;;7.03;3.70;;;;;;;;;;2091208;28;20044;-57
2023/11/27 00:22:56;;;;;;;5.40;2.95;;;;;;;;;;2091429;28;20091;-57
2023/11/27 00:23:57;;;;;;;6.93;3.88;;;;;;;;;;2091148;28;20028;-57
2023/11/27 00:24:57;;;;;;;6.95;4.00;;;;;;;;;;2091183;28;20025;-57
2023/11/27 00:25:58;;;;;;;7.25;3.30;;;;;;;;;;2090869;28;20404;-58
2023/11/27 00:26:59;;;;;;;8.00;3.60;;;;;;;;;;2088819;28;20033;-57
2023/11/27 00:27:59;;;;;;;7.07;3.63;;;;;;;;;;2089929;28;20041;-57
2023/11/27 00:29:00;;;;;;;7.82;3.65;;;;;;;;;;2090961;28;20032;-57
2023/11/27 00:30:01;;;;;;;7.00;3.55;;;;;;;;;;2090699;28;20492;-57
2023/11/27 00:31:02;;;;;;;4.97;3.42;;;;;;;;;;2082633;28;20044;-57
2023/11/27 00:32:03;;;;;;;7.30;3.78;;;;;;;;;;2090753;28;20029;-57
2023/11/27 00:33:04;;;;;;;8.38;3.17;;;;;;;;;;2091168;28;20037;-60
2023/11/27 00:34:05;;;;;;;6.55;3.50;;;;;;;;;;2091378;28;20029;-59
2023/11/27 00:35:06;;;;;;;7.25;4.60;;;;;;;;;;2091370;28;20040;-57
2023/11/27 00:36:08;;;;;;;8.27;4.13;;;;;;;;;;2090497;28;20041;-57
2023/11/27 00:37:08;;;;;;;10.80;4.07;;;;;;;;;;2090572;28;20033;-57
2023/11/27 00:38:10;;;;;;;6.95;3.65;;;;;;;;;;2090783;28;20044;-57
2023/11/27 00:39:10;;;;;;;7.50;3.70;;;;;;;;;;2090397;28;20033;-57
2023/11/27 00:40:11;;;;;;;9.50;4.25;;;;;;;;;;2090449;28;20413;-57
2023/11/27 00:41:14;;;;;;;8.80;4.28;;;;;;;;;;2091186;28;20033;-57
2023/11/27 00:42:15;;;;;;;6.78;3.95;;;;;;;;;;2091014;28;20045;-57
2023/11/27 00:43:15;;;;;;;7.93;3.50;;;;;;;;;;2090995;28;20029;-57
2023/11/27 00:44:16;;;;;;;6.93;3.80;;;;;;;;;;2091233;28;20056;-57
2023/11/27 00:45:17;;;;;;;6.95;4.00;;;;;;;;;;2091692;28;20044;-57
2023/11/27 00:46:19;;;;;;;6.65;3.70;;;;;;;;;;2091020;28;20032;-57
2023/11/27 00:47:19;;;;;;;7.13;3.97;;;;;;;;;;2091010;28;20045;-57
2023/11/27 00:48:20;;;;;;;8.15;4.25;;;;;;;;;;2090860;28;20413;-57
2023/11/27 00:49:21;;;;;;;7.07;4.60;;;;;;;;;;2090958;28;20468;-56
2023/11/27 00:50:22;;;;;;;7.95;4.22;;;;;;;;;;2091262;28;20480;-57
2023/11/27 00:51:23;;;;;;;8.13;4.65;;;;;;;;;;2090654;28;20052;-58
2023/11/27 00:52:23;;;;;;;5.72;3.55;;;;;;;;;;2082331;28;20042;-58
2023/11/27 00:53:24;;;;;;;8.68;4.38;;;;;;;;;;2090344;28;20049;-58
2023/11/27 00:54:25;;;;;;;6.85;4.50;;;;;;;;;;2090624;28;20506;-58
2023/11/27 00:55:26;;;;;;;8.48;4.53;;;;;;;;;;2090037;28;20041;-57
2023/11/27 00:56:27;;;;;;;10.63;5.10;;;;;;;;;;2090890;28;20485;-58
2023/11/27 00:57:27;;;;;;;6.95;4.38;;;;;;;;;;2090046;28;20041;-58
2023/11/27 00:58:28;;;;;;;7.95;4.82;;;;;;;;;;2090331;28;20033;-58
2023/11/27 00:59:30;;;;;;;9.75;4.75;;;;;;;;;;2090506;28;20048;-58
2023/11/27 01:00:31;;;;;;;9.23;5.13;;;;;;;;;;2090377;28;20041;-58
2023/11/27 01:01:32;;;;;;;8.75;5.25;;;;;;;;;;2090082;28;20064;-57
2023/11/27 01:02:32;;;;;;;7.10;4.47;;;;;;;;;;2089692;28;20068;-56
2023/11/27 01:03:33;;;;;;;10.23;4.93;;;;;;;;;;2090877;28;20473;-57
2023/11/27 01:04:36;;;;;;;7.15;4.55;;;;;;;;;;2090832;28;20044;-57
2023/11/27 01:05:37;;;;;;;9.40;4.85;;;;;;;;;;2090412;28;20041;-58
2023/11/27 01:06:38;;;;;;;8.63;4.40;;;;;;;;;;2089941;28;20045;-57
2023/11/27 01:07:41;;;;;;;7.82;4.45;;;;;;;;;;2090536;28;20037;-58
2023/11/27 01:08:42;;;;;;;7.38;4.47;;;;;;;;;;2090442;28;20044;-57
2023/11/27 01:09:42;;;;;;;11.35;5.63;;;;;;;;;;2090831;28;20477;-56
2023/11/27 01:10:43;;;;;;;8.05;4.70;;;;;;;;;;2091089;28;20044;-58
2023/11/27 01:11:44;;;;;;;9.27;5.07;;;;;;;;;;2090772;28;20068;-57
2023/11/27 01:12:45;;;;;;;10.00;5.40;;;;;;;;;;2090813;28;20044;-57
2023/11/27 01:13:46;;;;;;;9.38;5.22;;;;;;;;;;2091456;28;20492;-57
2023/11/27 01:14:46;;;;;;;9.85;4.65;;;;;;;;;;2090166;28;20476;-59
2023/11/27 01:15:47;;;;;;;10.48;5.30;;;;;;;;;;2090125;28;20028;-58
2023/11/27 01:16:48;;;;;;;8.98;6.22;;;;;;;;;;2090765;28;20041;-56
2023/11/27 01:17:49;;;;;;;10.88;6.15;;;;;;;;;;2090124;28;20040;-59
2023/11/27 01:18:50;;;;;;;10.15;5.47;;;;;;;;;;2081923;28;20037;-59
2023/11/27 01:19:50;;;;;;;9.88;5.07;;;;;;;;;;2090302;28;20036;-59
2023/11/27 01:20:51;;;;;;;10.40;5.57;;;;;;;;;;2090724;28;20029;-57
2023/11/27 01:21:55;;;;;;;9.27;5.80;;;;;;;;;;2090232;28;20370;-57
2023/11/27 01:22:56;;;;;;;11.13;5.90;;;;;;;;;;2082538;28;20038;-57
2023/11/27 01:23:57;;;;;;;10.40;6.65;;;;;;;;;;2090175;28;20029;-57
2023/11/27 01:24:58;;;;;;;12.75;6.03;;;;;;;;;;2090212;28;20539;-57
2023/11/27 01:25:58;;;;;;;9.93;5.75;;;;;;;;;;2090124;28;20033;-57
2023/11/27 01:27:00;;;;;;;9.73;6.57;;;;;;;;;;2089263;28;20017;-59
2023/11/27 01:28:01;;;;;;;9.68;5.88;;;;;;;;;;2090890;28;20032;-57
2023/11/27 01:29:01;;;;;;;10.10;6.18;;;;;;;;;;2081958;28;20029;-57
2023/11/27 01:30:03;;;;;;;12.02;6.93;;;;;;;;;;2081681;28;20389;-58
2023/11/27 01:31:04;;;;;;;10.18;5.50;;;;;;;;;;2090354;28;20037;-59
2023/11/27 01:32:04;;;;;;;10.77;6.18;;;;;;;;;;2098482;28;20040;-58
2023/11/27 01:33:05;;;;;;;9.27;6.28;;;;;;;;;;2090620;28;20052;-57
2023/11/27 01:34:06;;;;;;;12.85;6.20;;;;;;;;;;2090604;28;20025;-57
2023/11/27 01:35:08;;;;;;;10.55;6.90;;;;;;;;;;2090006;28;20037;-57
2023/11/27 01:36:09;;;;;;;12.55;6.57;;;;;;;;;;2082027;28;20129;-57
2023/11/27 01:37:10;;;;;;;12.90;6.90;;;;;;;;;;2082029;28;20037;-57
2023/11/27 01:38:11;;;;;;;9.35;6.40;;;;;;;;;;2082031;28;20538;-57
2023/11/27 01:39:14;;;;;;;10.50;6.45;;;;;;;;;;2089634;28;20473;-57
2023/11/27 01:40:14;;;;;;;9.35;6.50;;;;;;;;;;2090600;28;20056;-57
2023/11/27 01:41:15;;;;;;;9.55;6.93;;;;;;;;;;2090522;28;20049;-59
2023/11/27 01:42:16;;;;;;;9.93;6.90;;;;;;;;;;2090468;28;20393;-58
2023/11/27 01:43:16;;;;;;;14.82;6.07;;;;;;;;;;2090737;28;20453;-56
2023/11/27 01:44:17;;;;;;;11.18;7.35;;;;;;;;;;2090810;28;20037;-56
2023/11/27 01:45:18;;;;;;;12.52;7.35;;;;;;;;;;2090233;28;20056;-56
2023/11/27 01:46:23;;;;;;;15.18;7.30;;;;;;;;;;2090495;28;20049;-57
2023/11/27 01:47:26;;;;;;;13.50;6.85;;;;;;;;;;2090191;28;20044;-57
2023/11/27 01:48:27;;;;;;;9.35;6.13;;;;;;;;;;2089341;28;20551;-56
2023/11/27 01:49:28;;;;;;;10.30;6.35;;;;;;;;;;2081386;28;20056;-56
2023/11/27 01:50:28;;;;;;;13.30;6.90;;;;;;;;;;2081657;28;20102;-57
2023/11/27 01:51:29;;;;;;;10.13;6.57;;;;;;;;;;2089645;28;20069;-56
2023/11/27 01:52:30;;;;;;;11.45;6.82;;;;;;;;;;2090427;28;20049;-58
2023/11/27 01:53:31;;;;;;;12.05;6.95;;;;;;;;;;2089240;28;20049;-56
2023/11/27 01:54:32;;;;;;;9.75;6.63;;;;;;;;;;2090182;28;20033;-57
2023/11/27 01:55:33;;;;;;;14.43;7.55;;;;;;;;;;2081969;28;20049;-57
2023/11/27 01:56:34;;;;;;;13.13;7.95;;;;;;;;;;2073477;28;20491;-57
2023/11/27 01:57:34;;;;;;;11.55;6.47;;;;;;;;;;2081862;28;20068;-58
2023/11/27 01:58:35;;;;;;;13.27;6.95;;;;;;;;;;2089300;28;20456;-56
2023/11/27 01:59:36;;;;;;;14.23;6.97;;;;;;;;;;2065620;28;20387;-57
2023/11/27 02:00:37;;;;;;;11.43;6.80;;;;;;;;;;2073544;28;20045;-59
2023/11/27 02:01:38;;;;;;;9.88;6.95;;;;;;;;;;2088900;28;20508;-59
2023/11/27 02:02:40;;;;;;;12.73;7.15;;;;;;;;;;2090353;28;20045;-58
2023/11/27 02:03:41;;;;;;;11.75;7.32;;;;;;;;;;2089514;28;20388;-58
2023/11/27 02:04:43;;;;;;;11.77;6.43;;;;;;;;;;2081885;28;20033;-59
2023/11/27 02:05:43;;;;;;;12.30;7.22;;;;;;;;;;2081359;28;20033;-59
2023/11/27 02:06:44;;;;;;;11.77;6.53;;;;;;;;;;2089405;28;20025;-59
2023/11/27 02:07:45;;;;;;;10.02;6.65;;;;;;;;;;2090495;28;20047;-58
2023/11/27 02:08:46;;;;;;;13.02;7.07;;;;;;;;;;2081509;28;20045;-57
2023/11/27 02:09:47;;;;;;;10.30;6.10;;;;;;;;;;2081537;28;20124;-59
2023/11/27 02:10:47;;;;;;;14.32;7.50;;;;;;;;;;2090121;28;20049;-57
2023/11/27 02:11:49;;;;;;;11.68;6.68;;;;;;;;;;2090295;28;20036;-59
2023/11/27 02:12:49;;;;;;;9.10;6.25;;;;;;;;;;2090656;28;20453;-58
2023/11/27 02:13:50;;;;;;;11.40;7.13;;;;;;;;;;2089481;28;20041;-58
2023/11/27 02:14:52;;;;;;;11.30;7.38;;;;;;;;;;2089460;28;20052;-58
2023/11/27 02:15:53;;;;;;;11.25;6.95;;;;;;;;;;2089867;28;20066;-58
2023/11/27 02:16:53;;;;;;;10.23;7.05;;;;;;;;;;2081712;28;20056;-58
2023/11/27 02:17:54;;;;;;;12.13;7.03;;;;;;;;;;2081652;28;20401;-58
2023/11/27 02:18:55;;;;;;;11.15;6.95;;;;;;;;;;2089671;28;20036;-58
2023/11/27 02:19:56;;;;;;;12.25;6.55;;;;;;;;;;2081471;28;20021;-58
2023/11/27 02:21:03;;;;;;;10.23;6.88;;;;;;;;;;2089886;28;20424;-58
2023/11/27 02:22:04;;;;;;;9.40;6.53;;;;;;;;;;2089653;28;20032;-58
2023/11/27 02:23:14;;;;;;;12.32;6.55;;;;;;;;;;2081799;28;20041;-59
2023/11/27 02:24:15;;;;;;;10.13;6.00;;;;;;;;;;2082895;28;20048;-58
2023/11/27 02:25:16;;;;;;;10.63;6.45;;;;;;;;;;2098097;28;20055;-59
2023/11/27 02:26:17;;;;;;;10.82;6.85;;;;;;;;;;2098153;28;20062;-58
2023/11/27 02:27:18;;;;;;;10.38;6.30;;;;;;;;;;2088298;28;20542;-59
2023/11/27 02:28:19;;;;;;;10.52;6.03;;;;;;;;;;2089688;28;20139;-59
2023/11/27 02:29:19;;;;;;;12.02;6.35;;;;;;;;;;2089617;28;20041;-58
2023/11/27 02:30:20;;;;;;;11.45;7.00;;;;;;;;;;2089636;28;20124;-58
2023/11/27 02:31:21;;;;;;;11.13;7.07;;;;;;;;;;2090238;28;20037;-59
2023/11/27 02:32:22;;;;;;;10.95;6.43;;;;;;;;;;2090074;28;20056;-57
2023/11/27 02:33:25;;;;;;;8.73;5.47;;;;;;;;;;2089510;28;20033;-59
2023/11/27 02:34:25;;;;;;;10.40;6.00;;;;;;;;;;2089393;28;20056;-58
2023/11/27 02:35:26;;;;;;;10.63;6.18;;;;;;;;;;2089994;28;20044;-58
2023/11/27 02:36:28;;;;;;;10.55;6.28;;;;;;;;;;2090063;28;20068;-58
2023/11/27 02:37:30;;;;;;;9.30;5.70;;;;;;;;;;2090209;28;20049;-59
2023/11/27 02:38:31;;;;;;;12.50;6.70;;;;;;;;;;2090224;28;20090;-56
2023/11/27 02:39:32;;;;;;;10.95;6.05;;;;;;;;;;2090148;28;20037;-57
2023/11/27 02:40:32;;;;;;;8.40;5.60;;;;;;;;;;2090243;28;20052;-57
2023/11/27 02:41:34;;;;;;;13.90;6.38;;;;;;;;;;2089541;28;20052;-56
2023/11/27 02:42:35;;;;;;;9.93;5.38;;;;;;;;;;2089559;28;20529;-57
2023/11/27 02:43:36;;;;;;;11.13;6.47;;;;;;;;;;2090262;28;20040;-57
2023/11/27 02:44:37;;;;;;;10.52;6.20;;;;;;;;;;2090379;28;20033;-57
2023/11/27 02:45:37;;;;;;;9.73;6.50;;;;;;;;;;2089572;28;20041;-57
2023/11/27 02:46:38;;;;;;;11.80;5.97;;;;;;;;;;2081534;28;20060;-57
2023/11/27 02:47:39;;;;;;;11.50;6.07;;;;;;;;;;2089264;28;20040;-56
2023/11/27 02:48:39;;;;;;;9.32;5.90;;;;;;;;;;2090136;28;20049;-57
2023/11/27 02:49:40;;;;;;;11.10;5.45;;;;;;;;;;2090311;28;20029;-57
2023/11/27 02:50:41;;;;;;;9.25;6.32;;;;;;;;;;2090382;28;20037;-57
2023/11/27 02:51:41;;;;;;;8.50;5.82;;;;;;;;;;2091879;28;20389;-57
2023/11/27 02:52:42;;;;;;;12.25;7.00;;;;;;;;;;2091316;28;20045;-57
2023/11/27 02:53:43;;;;;;;9.95;6.20;;;;;;;;;;2091298;28;20048;-57
2023/11/27 02:54:44;;;;;;;8.73;5.25;;;;;;;;;;2092134;28;20037;-57
2023/11/27 02:55:44;;;;;;;10.52;5.82;;;;;;;;;;2092038;28;20499;-56
2023/11/27 02:56:46;;;;;;;10.50;6.22;;;;;;;;;;2091843;28;20048;-57
2023/11/27 02:57:47;;;;;;;7.88;5.65;;;;;;;;;;2091180;28;20037;-57
2023/11/27 02:58:48;;;;;;;8.35;5.65;;;;;;;;;;2091219;28;20493;-56
2023/11/27 02:59:52;;;;;;;13.18;5.05;;;;;;;;;;2091921;28;20037;-56
2023/11/27 03:00:52;;;;;;;9.90;5.55;;;;;;;;;;2091612;28;20044;-57
2023/11/27 03:01:53;;;;;;;10.43;5.20;;;;;;;;;;2091979;28;20385;-57
2023/11/27 03:02:54;;;;;;;8.38;5.38;;;;;;;;;;2092063;28;20033;-57
2023/11/27 03:03:55;;;;;;;8.77;4.78;;;;;;;;;;2091805;28;20052;-57
2023/11/27 03:04:55;;;;;;;8.10;5.55;;;;;;;;;;2091929;28;20041;-57
2023/11/27 03:05:56;;;;;;;6.88;4.97;;;;;;;;;;2092073;28;20033;-57
2023/11/27 03:06:57;;;;;;;8.02;4.82;;;;;;;;;;2091965;28;20029;-59
2023/11/27 03:07:58;;;;;;;9.10;5.00;;;;;;;;;;2090910;28;20056;-57
2023/11/27 03:08:59;;;;;;;8.35;4.32;;;;;;;;;;2091130;28;20033;-57
2023/11/27 03:09:59;;;;;;;8.68;4.80;;;;;;;;;;2091757;28;20021;-57
2023/11/27 03:11:00;;;;;;;8.30;4.80;;;;;;;;;;2091429;28;20033;-57
2023/11/27 03:12:01;;;;;;;8.20;4.82;;;;;;;;;;2091088;28;20491;-57
2023/11/27 03:13:01;;;;;;;9.02;4.72;;;;;;;;;;2083164;28;20029;-59
2023/11/27 03:14:02;;;;;;;8.50;4.10;;;;;;;;;;2091333;28;20029;-58
2023/11/27 03:15:05;;;;;;;8.02;4.55;;;;;;;;;;2091729;28;20099;-59
2023/11/27 03:16:06;;;;;;;7.88;4.30;;;;;;;;;;2091715;28;20041;-59
2023/11/27 03:17:06;;;;;;;6.82;4.38;;;;;;;;;;2091656;28;20052;-58
2023/11/27 03:18:07;;;;;;;7.35;4.30;;;;;;;;;;2091318;28;20025;-59
2023/11/27 03:19:08;;;;;;;8.75;4.55;;;;;;;;;;2091313;28;20033;-59
2023/11/27 03:20:12;;;;;;;8.07;4.32;;;;;;;;;;2091107;28;20492;-59
2023/11/27 03:21:22;;;;;;;6.03;3.75;;;;;;;;;;2091413;28;20048;-59
2023/11/27 03:22:23;;;;;;;7.53;4.30;;;;;;;;;;2091306;28;20469;-59
2023/11/27 03:23:24;;;;;;;6.45;4.25;;;;;;;;;;2090774;28;20045;-59
2023/11/27 03:24:25;;;;;;;7.47;4.03;;;;;;;;;;2091798;28;20090;-59
2023/11/27 03:25:25;;;;;;;6.97;4.28;;;;;;;;;;2091638;28;20451;-58
2023/11/27 03:26:26;;;;;;;6.95;4.03;;;;;;;;;;2091618;28;20032;-58
2023/11/27 03:27:27;;;;;;;6.93;3.65;;;;;;;;;;2090281;28;20167;-58
2023/11/27 03:28:28;;;;;;;6.93;3.58;;;;;;;;;;2091808;28;20457;-58
2023/11/27 03:29:29;;;;;;;8.40;3.20;;;;;;;;;;2091526;28;20033;-56
2023/11/27 03:30:30;;;;;;;6.43;3.70;;;;;;;;;;2091663;28;20041;-58
2023/11/27 03:31:30;;;;;;;7.22;3.28;;;;;;;;;;2091565;28;20037;-58
2023/11/27 03:32:32;;;;;;;6.93;3.50;;;;;;;;;;2090992;28;20044;-59
2023/11/27 03:33:34;;;;;;;6.93;3.63;;;;;;;;;;2091656;28;20067;-58
2023/11/27 03:34:35;;;;;;;6.90;3.50;;;;;;;;;;2091223;28;20489;-59
2023/11/27 03:35:35;;;;;;;7.85;3.30;;;;;;;;;;2090986;28;20044;-58
2023/11/27 03:36:38;;;;;;;4.72;3.08;;;;;;;;;;2091744;28;20041;-57
2023/11/27 03:37:38;;;;;;;5.70;2.90;;;;;;;;;;2091538;28;20049;-57
2023/11/27 03:38:39;;;;;;;4.72;3.05;;;;;;;;;;2091517;28;20049;-56
2023/11/27 03:39:40;;;;;;;5.35;3.30;;;;;;;;;;2090937;28;20048;-56
2023/11/27 03:40:40;;;;;;;5.97;3.30;;;;;;;;;;2082662;28;20127;-57
2023/11/27 03:41:41;;;;;;;5.07;2.70;;;;;;;;;;2083107;28;20128;-59
2023/11/27 03:42:42;;;;;;;7.70;3.03;;;;;;;;;;2090603;28;20048;-59
2023/11/27 03:43:43;;;;;;;5.68;3.00;;;;;;;;;;2091161;28;20041;-59
2023/11/27 03:44:44;;;;;;;5.68;3.05;;;;;;;;;;2090899;28;20052;-56
2023/11/27 03:45:44;;;;;;;5.28;2.80;;;;;;;;;;2091192;28;20040;-57
2023/11/27 03:46:45;;;;;;;5.75;2.70;;;;;;;;;;2091440;28;20041;-57
2023/11/27 03:47:46;;;;;;;6.97;3.40;;;;;;;;;;2091660;28;20373;-57
2023/11/27 03:48:46;;;;;;;4.38;2.53;;;;;;;;;;2090806;28;20041;-57
2023/11/27 03:49:47;;;;;;;4.45;2.42;;;;;;;;;;2090288;28;20056;-58
2023/11/27 03:50:48;;;;;;;5.78;2.85;;;;;;;;;;2082651;28;20034;-59
2023/11/27 03:51:49;;;;;;;5.65;3.10;;;;;;;;;;2082945;28;20029;-57
2023/11/27 03:52:50;;;;;;;4.25;2.28;;;;;;;;;;2091580;28;20033;-57
2023/11/27 03:53:51;;;;;;;4.10;2.45;;;;;;;;;;2091431;28;20045;-56
2023/11/27 03:54:53;;;;;;;4.88;2.80;;;;;;;;;;2091452;28;20404;-57
2023/11/27 03:55:53;;;;;;;3.67;2.47;;;;;;;;;;2091614;28;20044;-57
2023/11/27 03:56:54;;;;;;;4.35;2.15;;;;;;;;;;2091428;28;20047;-57
2023/11/27 03:57:55;;;;;;;5.55;2.60;;;;;;;;;;2090518;28;20051;-58
2023/11/27 03:58:56;;;;;;;4.30;2.10;;;;;;;;;;2090563;28;20475;-57
2023/11/27 03:59:57;;;;;;;3.53;2.10;;;;;;;;;;2090599;28;20032;-57
2023/11/27 04:00:57;;;;;;;4.85;2.70;;;;;;;;;;2090725;28;20387;-57
2023/11/27 04:01:58;;;;;;;3.47;2.08;;;;;;;;;;2091454;28;20064;-57
2023/11/27 04:02:59;;;;;;;3.70;2.20;;;;;;;;;;2091322;28;20045;-57
2023/11/27 04:04:00;;;;;;;3.78;2.10;;;;;;;;;;2091660;28;20464;-56
2023/11/27 04:05:01;;;;;;;4.53;2.38;;;;;;;;;;2091319;28;20029;-57
2023/11/27 04:06:04;;;;;;;6.10;2.50;;;;;;;;;;2091346;28;20033;-56
2023/11/27 04:07:05;;;;;;;5.60;2.42;;;;;;;;;;2091333;28;20044;-57
2023/11/27 04:08:07;;;;;;;4.97;2.20;;;;;;;;;;2091493;28;20037;-57
2023/11/27 04:09:13;;;;;;;5.18;2.20;;;;;;;;;;2091600;28;20040;-57
2023/11/27 04:10:18;;;;;;;4.90;2.75;;;;;;;;;;2091547;28;20373;-57
2023/11/27 04:11:19;;;;;;;3.92;2.13;;;;;;;;;;2089948;28;20041;-57
2023/11/27 04:12:19;;;;;;;5.43;2.30;;;;;;;;;;2090657;28;20049;-57
2023/11/27 04:13:20;;;;;;;4.70;2.10;;;;;;;;;;2090661;28;20041;-57
2023/11/27 04:14:21;;;;;;;4.22;2.30;;;;;;;;;;2090054;28;20052;-57
2023/11/27 04:15:22;;;;;;;5.00;2.30;;;;;;;;;;2090627;28;20044;-57
2023/11/27 04:16:23;;;;;;;2.92;1.88;;;;;;;;;;2090286;28;20045;-57
2023/11/27 04:17:24;;;;;;;4.20;1.75;;;;;;;;;;2090985;28;20045;-56
2023/11/27 04:18:25;;;;;;;4.78;2.00;;;;;;;;;;2091293;28;20040;-56
2023/11/27 04:19:26;;;;;;;2.83;1.73;;;;;;;;;;2090961;28;20052;-56
2023/11/27 04:20:27;;;;;;;3.53;2.00;;;;;;;;;;2090892;28;20041;-56
2023/11/27 04:21:28;;;;;;;4.05;1.83;;;;;;;;;;2091194;28;20135;-56
2023/11/27 04:22:28;;;;;;;3.95;1.80;;;;;;;;;;2090391;28;20048;-56
2023/11/27 04:23:30;;;;;;;4.68;1.55;;;;;;;;;;2090610;28;20401;-56
2023/11/27 04:24:30;;;;;;;3.72;2.05;;;;;;;;;;2091196;28;20033;-56
2023/11/27 04:25:31;;;;;;;3.75;1.80;;;;;;;;;;2090881;28;20041;-56
2023/11/27 04:26:32;;;;;;;4.97;2.20;;;;;;;;;;2091489;28;20028;-57
2023/11/27 04:27:32;;;;;;;4.75;2.22;;;;;;;;;;2090039;28;20037;-57
2023/11/27 04:28:34;;;;;;;3.35;1.75;;;;;;;;;;2091142;28;20040;-56
2023/11/27 04:29:35;;;;;;;4.43;1.98;;;;;;;;;;2091327;28;20483;-57
2023/11/27 04:30:36;;;;;;;3.15;1.80;;;;;;;;;;2091611;28;20036;-56
2023/11/27 04:31:37;;;;;;;2.45;1.40;;;;;;;;;;2091149;28;20037;-57
2023/11/27 04:32:37;;;;;;;4.28;1.77;;;;;;;;;;2091159;28;20041;-57
2023/11/27 04:33:38;;;;;;;3.42;2.13;;;;;;;;;;2091129;28;20054;-56
2023/11/27 04:34:39;;;;;;;6.20;2.20;;;;;;;;;;2091802;28;20037;-57
2023/11/27 04:35:41;;;;;;;3.35;1.90;;;;;;;;;;2091111;28;20033;-56
2023/11/27 04:36:41;;;;;;;3.20;1.70;;;;;;;;;;2091651;28;20041;-58
2023/11/27 04:37:42;;;;;;;4.95;1.95;;;;;;;;;;2091059;28;20045;-56
2023/11/27 04:38:43;;;;;;;3.97;1.80;;;;;;;;;;2091275;28;20035;-56
2023/11/27 04:39:43;;;;;;;3.13;1.85;;;;;;;;;;2091485;28;20048;-56
2023/11/27 04:40:44;;;;;;;4.30;1.77;;;;;;;;;;2090527;28;20048;-56
2023/11/27 04:41:45;;;;;;;3.05;1.70;;;;;;;;;;2090883;28;20051;-57
2023/11/27 04:42:45;;;;;;;2.90;1.45;;;;;;;;;;2090853;28;20527;-56
2023/11/27 04:43:46;;;;;;;2.33;1.50;;;;;;;;;;2090741;28;20037;-56
2023/11/27 04:44:47;;;;;;;3.60;1.42;;;;;;;;;;2090609;28;20040;-56
2023/11/27 04:45:48;;;;;;;3.15;1.60;;;;;;;;;;2091013;28;20044;-56
2023/11/27 04:46:49;;;;;;;3.40;2.00;;;;;;;;;;2090979;28;20393;-58
2023/11/27 04:47:50;;;;;;;3.85;1.63;;;;;;;;;;2091021;28;20037;-57
2023/11/27 04:48:50;;;;;;;2.83;1.60;;;;;;;;;;2091181;28;20469;-56
2023/11/27 04:49:51;;;;;;;3.95;1.50;;;;;;;;;;2091007;28;20021;-56
2023/11/27 04:50:52;;;;;;;3.55;1.65;;;;;;;;;;2091603;28;20108;-56
2023/11/27 04:51:52;;;;;;;1.65;1.10;;;;;;;;;;2091001;28;20048;-56
2023/11/27 04:52:53;;;;;;;2.67;1.50;;;;;;;;;;2090986;28;20381;-56
2023/11/27 04:53:54;;;;;;;3.97;1.50;;;;;;;;;;2090848;28;20025;-56
2023/11/27 04:54:55;;;;;;;3.55;1.88;;;;;;;;;;2091503;28;20137;-56
2023/11/27 04:55:56;;;;;;;3.78;1.63;;;;;;;;;;2090927;28;20037;-56
2023/11/27 04:56:56;;;;;;;3.70;1.60;;;;;;;;;;2090936;28;20041;-56
2023/11/27 04:57:58;;;;;;;2.42;1.23;;;;;;;;;;2091059;28;20048;-56
2023/11/27 04:58:58;;;;;;;3.20;1.55;;;;;;;;;;2090904;28;20484;-56
2023/11/27 04:59:59;;;;;;;2.40;1.50;;;;;;;;;;2091211;28;20029;-56
2023/11/27 05:01:02;;;;;;;3.90;2.28;;;;;;;;;;2090468;28;20041;-57
2023/11/27 05:02:03;;;;;;;3.42;1.60;;;;;;;;;;2090556;28;20376;-57
2023/11/27 05:03:04;;;;;;;2.40;1.15;;;;;;;;;;2090418;28;20035;-56
2023/11/27 05:04:05;;;;;;;3.47;1.42;;;;;;;;;;2091265;28;20067;-57
2023/11/27 05:05:05;;;;;;;2.72;1.48;;;;;;;;;;2091145;28;20064;-58
2023/11/27 05:06:06;;;;;;;4.45;1.65;;;;;;;;;;2090969;28;20458;-57
2023/11/27 05:07:07;;;;;;;4.18;2.28;;;;;;;;;;2090906;28;20055;-57
2023/11/27 05:08:07;;;;;;;5.18;1.80;;;;;;;;;;2091135;28;20025;-57
2023/11/27 05:09:09;;;;;;;3.35;1.40;;;;;;;;;;2091885;28;20461;-57
2023/11/27 05:10:11;;;;;;;2.85;1.48;;;;;;;;;;2090818;28;20041;-57
2023/11/27 05:11:18;;;;;;;5.05;1.30;;;;;;;;;;2090853;28;20435;-57
2023/11/27 05:12:19;;;;;;;3.40;1.60;;;;;;;;;;2090257;28;20036;-56
2023/11/27 05:13:20;;;;;;;2.22;1.38;;;;;;;;;;2090060;28;20043;-57
2023/11/27 05:14:21;;;;;;;5.18;1.60;;;;;;;;;;2090299;28;20036;-55
2023/11/27 05:15:22;;;;;;;2.85;1.38;;;;;;;;;;2090971;28;20465;-59
2023/11/27 05:16:23;;;;;;;2.90;1.40;;;;;;;;;;2091233;28;20075;-56
2023/11/27 05:17:23;;;;;;;4.25;1.35;;;;;;;;;;2090865;28;20073;-56
2023/11/27 05:18:24;;;;;;;2.50;1.50;;;;;;;;;;2091259;28;20045;-55
2023/11/27 05:19:25;;;;;;;4.35;1.58;;;;;;;;;;2091147;28;20134;-57
2023/11/27 05:20:26;;;;;;;3.13;1.50;;;;;;;;;;2090774;28;20033;-56
2023/11/27 05:21:26;;;;;;;3.88;1.20;;;;;;;;;;2090105;28;20037;-56
2023/11/27 05:22:27;;;;;;;2.85;1.23;;;;;;;;;;2090415;28;20132;-56
2023/11/27 05:23:28;;;;;;;2.45;1.42;;;;;;;;;;2090691;28;20044;-55
2023/11/27 05:24:28;;;;;;;3.55;1.50;;;;;;;;;;2090893;28;20389;-57
2023/11/27 05:25:29;;;;;;;5.20;1.75;;;;;;;;;;2090711;28;20029;-55
2023/11/27 05:26:30;;;;;;;2.97;1.30;;;;;;;;;;2090747;28;20061;-57
2023/11/27 05:27:31;;;;;;;3.85;1.90;;;;;;;;;;2089629;28;20048;-56
2023/11/27 05:28:31;;;;;;;3.50;1.35;;;;;;;;;;2090690;28;20071;-57
2023/11/27 05:29:32;;;;;;;2.80;1.70;;;;;;;;;;2090891;28;20025;-56
2023/11/27 05:30:33;;;;;;;2.67;1.27;;;;;;;;;;2091216;28;20408;-57
2023/11/27 05:31:34;;;;;;;2.50;1.30;;;;;;;;;;2090682;28;20466;-55
2023/11/27 05:32:35;;;;;;;2.88;1.25;;;;;;;;;;2090835;28;20381;-56
2023/11/27 05:33:35;;;;;;;3.88;1.55;;;;;;;;;;2090630;28;20049;-58
2023/11/27 05:34:36;;;;;;;2.85;1.38;;;;;;;;;;2090603;28;20040;-58
2023/11/27 05:35:37;;;;;;;2.10;1.23;;;;;;;;;;2090629;28;20041;-56
2023/11/27 05:36:37;;;;;;;3.42;1.10;;;;;;;;;;2090750;28;20041;-56
2023/11/27 05:37:38;;;;;;;3.97;1.00;;;;;;;;;;2090581;28;20045;-56
2023/11/27 05:38:39;;;;;;;4.47;1.25;;;;;;;;;;2090567;28;20562;-58
2023/11/27 05:39:42;;;;;;;2.13;1.02;;;;;;;;;;2090557;28;20056;-57
2023/11/27 05:40:43;;;;;;;3.47;1.40;;;;;;;;;;2090566;28;20037;-57
2023/11/27 05:41:49;;;;;;;2.65;1.38;;;;;;;;;;2090545;28;20036;-55
2023/11/27 05:42:49;;;;;;;2.13;1.05;;;;;;;;;;2090614;28;20036;-55
2023/11/27 05:43:51;;;;;;;2.80;1.00;;;;;;;;;;2090466;28;20033;-56
2023/11/27 05:44:52;;;;;;;1.67;0.90;;;;;;;;;;2090430;28;20052;-56
2023/11/27 05:45:52;;;;;;;2.95;1.02;;;;;;;;;;2090206;28;20056;-56
2023/11/27 05:46:53;;;;;;;3.40;1.30;;;;;;;;;;2090663;28;20509;-56
2023/11/27 05:47:54;;;;;;;2.80;1.17;;;;;;;;;;2090836;28;20366;-55
2023/11/27 05:48:55;;;;;;;1.15;0.70;;;;;;;;;;2090509;28;20036;-56
2023/11/27 05:49:55;;;;;;;2.42;1.10;;;;;;;;;;2090562;28;20392;-56
2023/11/27 05:50:56;;;;;;;1.92;1.00;;;;;;;;;;2090786;28;20033;-56
2023/11/27 05:51:57;;;;;;;1.50;0.93;;;;;;;;;;2090537;28;20033;-57
2023/11/27 05:52:58;;;;;;;2.38;1.05;;;;;;;;;;2090829;28;20032;-56
2023/11/27 05:53:59;;;;;;;2.20;1.20;;;;;;;;;;2090499;28;20049;-56
2023/11/27 05:55:00;;;;;;;3.28;1.33;;;;;;;;;;2090498;28;20040;-56
2023/11/27 05:56:02;;;;;;;2.05;1.17;;;;;;;;;;2090464;28;20087;-56
2023/11/27 05:57:02;;;;;;;4.00;1.38;;;;;;;;;;2090491;28;20049;-56
2023/11/27 05:58:03;;;;;;;2.92;1.10;;;;;;;;;;2090445;28;20477;-56
2023/11/27 05:59:04;;;;;;;1.98;1.00;;;;;;;;;;2090349;28;20477;-57
2023/11/27 06:00:06;;;;;;;4.32;1.33;;;;;;;;;;2090655;28;20124;-58
2023/11/27 06:01:12;;;;;;;3.05;1.02;;;;;;;;;;2090274;28;20049;-57
2023/11/27 06:02:13;;;;;;;1.92;1.05;;;;;;;;;;2090855;28;20477;-56
2023/11/27 06:03:14;;;;;;;3.55;1.30;;;;;;;;;;2090341;28;20099;-56
2023/11/27 06:04:14;;;;;;;2.00;1.05;;;;;;;;;;2090404;28;20063;-57
2023/11/27 06:05:17;;;;;;;2.58;1.17;;;;;;;;;;2090162;28;20109;-56